sensor_id;sensor_type;location;lat;lon;timestamp;P1;durP1;ratioP1;P2;durP2;ratioP2
11313;SDS011;5712;48.858;9.206;2023-04-15T00:00:48;6.17;;;3.80;;
11313;SDS011;5712;48.858;9.206;2023-04-15T00:03:15;4.23;;;3.57;;
11313;SDS011;5712;48.858;9.206;2023-04-15T00:05:42;6.73;;;4.43;;
11313;SDS011;5712;48.858;9.206;2023-04-15T00:08:10;5.83;;;3.93;;
11313;SDS011;5712;48.858;9.206;2023-04-15T00:10:37;6.40;;;4.10;;
11313;SDS011;5712;48.858;9.206;2023-04-15T00:13:04;7.00;;;4.33;;
11313;SDS011;5712;48.858;9.206;2023-04-15T00:15:30;7.70;;;4.60;;
11313;SDS011;5712;48.858;9.206;2023-04-15T00:17:57;8.63;;;4.77;;
11313;SDS011;5712;48.858;9.206;2023-04-15T00:20:23;7.30;;;4.40;;
11313;SDS011;5712;48.858;9.206;2023-04-15T00:22:50;9.00;;;4.80;;
11313;SDS011;5712;48.858;9.206;2023-04-15T00:25:18;6.80;;;4.30;;
11313;SDS011;5712;48.858;9.206;2023-04-15T00:27:45;6.17;;;4.47;;
11313;SDS011;5712;48.858;9.206;2023-04-15T00:30:11;7.33;;;4.97;;
11313;SDS011;5712;48.858;9.206;2023-04-15T00:32:38;8.63;;;5.37;;
11313;SDS011;5712;48.858;9.206;2023-04-15T00:35:06;7.73;;;5.70;;
11313;SDS011;5712;48.858;9.206;2023-04-15T00:37:33;8.10;;;4.83;;
11313;SDS011;5712;48.858;9.206;2023-04-15T00:40:00;6.93;;;4.70;;
11313;SDS011;5712;48.858;9.206;2023-04-15T00:42:30;9.27;;;5.03;;
11313;SDS011;5712;48.858;9.206;2023-04-15T00:44:57;5.77;;;4.20;;
11313;SDS011;5712;48.858;9.206;2023-04-15T00:47:23;6.93;;;4.67;;
11313;SDS011;5712;48.858;9.206;2023-04-15T00:49:51;8.53;;;5.37;;
11313;SDS011;5712;48.858;9.206;2023-04-15T00:52:18;9.00;;;5.10;;
11313;SDS011;5712;48.858;9.206;2023-04-15T00:54:44;9.83;;;5.10;;
11313;SDS011;5712;48.858;9.206;2023-04-15T00:57:11;8.43;;;4.67;;
11313;SDS011;5712;48.858;9.206;2023-04-15T00:59:38;5.70;;;4.50;;
11313;SDS011;5712;48.858;9.206;2023-04-15T01:02:05;8.30;;;5.13;;
11313;SDS011;5712;48.858;9.206;2023-04-15T01:04:32;6.57;;;4.70;;
11313;SDS011;5712;48.858;9.206;2023-04-15T01:06:58;6.13;;;4.27;;
11313;SDS011;5712;48.858;9.206;2023-04-15T01:09:25;7.43;;;4.80;;
11313;SDS011;5712;48.858;9.206;2023-04-15T01:11:52;9.57;;;5.40;;
11313;SDS011;5712;48.858;9.206;2023-04-15T01:14:18;7.13;;;5.00;;
11313;SDS011;5712;48.858;9.206;2023-04-15T01:16:47;8.00;;;5.03;;
11313;SDS011;5712;48.858;9.206;2023-04-15T01:19:14;6.63;;;4.97;;
11313;SDS011;5712;48.858;9.206;2023-04-15T01:21:42;7.37;;;5.17;;
11313;SDS011;5712;48.858;9.206;2023-04-15T01:24:10;7.07;;;5.03;;
11313;SDS011;5712;48.858;9.206;2023-04-15T01:26:38;7.80;;;5.17;;
11313;SDS011;5712;48.858;9.206;2023-04-15T01:29:05;7.23;;;5.17;;
11313;SDS011;5712;48.858;9.206;2023-04-15T01:31:32;6.97;;;4.77;;
11313;SDS011;5712;48.858;9.206;2023-04-15T01:33:59;6.43;;;5.30;;
11313;SDS011;5712;48.858;9.206;2023-04-15T01:36:26;8.60;;;5.30;;
11313;SDS011;5712;48.858;9.206;2023-04-15T01:38:53;9.07;;;5.20;;
11313;SDS011;5712;48.858;9.206;2023-04-15T01:41:21;8.53;;;5.50;;
11313;SDS011;5712;48.858;9.206;2023-04-15T01:43:51;9.33;;;5.70;;
11313;SDS011;5712;48.858;9.206;2023-04-15T01:46:17;7.77;;;4.77;;
11313;SDS011;5712;48.858;9.206;2023-04-15T01:48:44;6.50;;;5.10;;
11313;SDS011;5712;48.858;9.206;2023-04-15T01:51:11;7.77;;;4.83;;
11313;SDS011;5712;48.858;9.206;2023-04-15T01:53:37;8.23;;;5.30;;
11313;SDS011;5712;48.858;9.206;2023-04-15T01:56:04;7.70;;;5.00;;
11313;SDS011;5712;48.858;9.206;2023-04-15T01:58:32;5.87;;;4.77;;
11313;SDS011;5712;48.858;9.206;2023-04-15T02:01:00;9.07;;;5.53;;
11313;SDS011;5712;48.858;9.206;2023-04-15T02:03:28;7.87;;;5.03;;
11313;SDS011;5712;48.858;9.206;2023-04-15T02:05:54;8.83;;;5.23;;
11313;SDS011;5712;48.858;9.206;2023-04-15T02:08:21;7.50;;;5.17;;
11313;SDS011;5712;48.858;9.206;2023-04-15T02:10:48;7.50;;;5.23;;
11313;SDS011;5712;48.858;9.206;2023-04-15T02:13:14;7.80;;;5.50;;
11313;SDS011;5712;48.858;9.206;2023-04-15T02:15:45;8.30;;;5.80;;
11313;SDS011;5712;48.858;9.206;2023-04-15T02:18:13;10.60;;;5.57;;
11313;SDS011;5712;48.858;9.206;2023-04-15T02:20:40;11.13;;;5.37;;
11313;SDS011;5712;48.858;9.206;2023-04-15T02:23:07;8.53;;;5.13;;
11313;SDS011;5712;48.858;9.206;2023-04-15T02:25:35;8.80;;;5.60;;
11313;SDS011;5712;48.858;9.206;2023-04-15T02:28:03;9.40;;;5.93;;
11313;SDS011;5712;48.858;9.206;2023-04-15T02:30:30;7.67;;;5.30;;
11313;SDS011;5712;48.858;9.206;2023-04-15T02:32:56;10.27;;;5.53;;
11313;SDS011;5712;48.858;9.206;2023-04-15T02:35:24;9.17;;;5.27;;
11313;SDS011;5712;48.858;9.206;2023-04-15T02:37:51;11.00;;;5.90;;
11313;SDS011;5712;48.858;9.206;2023-04-15T02:40:17;7.30;;;4.77;;
11313;SDS011;5712;48.858;9.206;2023-04-15T02:42:44;6.77;;;4.77;;
11313;SDS011;5712;48.858;9.206;2023-04-15T02:45:10;8.87;;;4.80;;
11313;SDS011;5712;48.858;9.206;2023-04-15T02:47:37;8.30;;;4.83;;
11313;SDS011;5712;48.858;9.206;2023-04-15T02:50:06;9.60;;;4.90;;
11313;SDS011;5712;48.858;9.206;2023-04-15T02:52:37;9.57;;;5.00;;
11313;SDS011;5712;48.858;9.206;2023-04-15T02:55:04;6.03;;;4.67;;
11313;SDS011;5712;48.858;9.206;2023-04-15T02:57:32;10.13;;;5.57;;
11313;SDS011;5712;48.858;9.206;2023-04-15T03:00:00;7.40;;;5.17;;
11313;SDS011;5712;48.858;9.206;2023-04-15T03:02:27;6.53;;;5.17;;
11313;SDS011;5712;48.858;9.206;2023-04-15T03:04:59;9.17;;;5.50;;
11313;SDS011;5712;48.858;9.206;2023-04-15T03:07:25;9.07;;;5.30;;
11313;SDS011;5712;48.858;9.206;2023-04-15T03:09:53;8.60;;;5.80;;
11313;SDS011;5712;48.858;9.206;2023-04-15T03:12:19;6.73;;;5.47;;
11313;SDS011;5712;48.858;9.206;2023-04-15T03:14:46;9.37;;;5.90;;
11313;SDS011;5712;48.858;9.206;2023-04-15T03:17:12;10.87;;;5.60;;
11313;SDS011;5712;48.858;9.206;2023-04-15T03:19:39;9.27;;;5.70;;
11313;SDS011;5712;48.858;9.206;2023-04-15T03:22:06;6.53;;;5.20;;
11313;SDS011;5712;48.858;9.206;2023-04-15T03:24:32;8.13;;;5.40;;
11313;SDS011;5712;48.858;9.206;2023-04-15T03:27:00;7.57;;;5.17;;
11313;SDS011;5712;48.858;9.206;2023-04-15T03:29:27;9.33;;;5.43;;
11313;SDS011;5712;48.858;9.206;2023-04-15T03:31:53;9.67;;;6.13;;
11313;SDS011;5712;48.858;9.206;2023-04-15T03:34:20;7.73;;;5.63;;
11313;SDS011;5712;48.858;9.206;2023-04-15T03:36:46;8.27;;;5.53;;
11313;SDS011;5712;48.858;9.206;2023-04-15T03:39:13;8.33;;;5.63;;
11313;SDS011;5712;48.858;9.206;2023-04-15T03:41:39;8.77;;;5.33;;
11313;SDS011;5712;48.858;9.206;2023-04-15T03:44:07;11.07;;;5.97;;
11313;SDS011;5712;48.858;9.206;2023-04-15T03:46:34;9.00;;;5.60;;
11313;SDS011;5712;48.858;9.206;2023-04-15T03:49:01;9.20;;;6.20;;
11313;SDS011;5712;48.858;9.206;2023-04-15T03:51:27;8.87;;;6.03;;
11313;SDS011;5712;48.858;9.206;2023-04-15T03:53:55;7.30;;;5.47;;
11313;SDS011;5712;48.858;9.206;2023-04-15T03:56:22;8.40;;;5.73;;
11313;SDS011;5712;48.858;9.206;2023-04-15T03:58:49;6.43;;;5.77;;
11313;SDS011;5712;48.858;9.206;2023-04-15T04:01:17;6.93;;;5.60;;
11313;SDS011;5712;48.858;9.206;2023-04-15T04:03:43;9.77;;;5.80;;
11313;SDS011;5712;48.858;9.206;2023-04-15T04:06:10;8.33;;;5.87;;
11313;SDS011;5712;48.858;9.206;2023-04-15T04:08:37;9.40;;;5.33;;
11313;SDS011;5712;48.858;9.206;2023-04-15T04:11:03;8.10;;;5.60;;
11313;SDS011;5712;48.858;9.206;2023-04-15T04:13:30;9.83;;;6.13;;
11313;SDS011;5712;48.858;9.206;2023-04-15T04:15:57;9.37;;;6.47;;
11313;SDS011;5712;48.858;9.206;2023-04-15T04:18:24;9.77;;;6.03;;
11313;SDS011;5712;48.858;9.206;2023-04-15T04:20:51;10.97;;;6.17;;
11313;SDS011;5712;48.858;9.206;2023-04-15T04:23:18;9.63;;;5.83;;
11313;SDS011;5712;48.858;9.206;2023-04-15T04:25:44;9.03;;;5.83;;
11313;SDS011;5712;48.858;9.206;2023-04-15T04:28:11;9.63;;;5.67;;
11313;SDS011;5712;48.858;9.206;2023-04-15T04:30:38;8.37;;;6.17;;
11313;SDS011;5712;48.858;9.206;2023-04-15T04:33:05;8.17;;;5.87;;
11313;SDS011;5712;48.858;9.206;2023-04-15T04:35:33;7.97;;;6.23;;
11313;SDS011;5712;48.858;9.206;2023-04-15T04:38:01;8.57;;;5.67;;
11313;SDS011;5712;48.858;9.206;2023-04-15T04:40:28;7.13;;;5.70;;
11313;SDS011;5712;48.858;9.206;2023-04-15T04:42:54;10.30;;;6.23;;
11313;SDS011;5712;48.858;9.206;2023-04-15T04:45:21;14.93;;;8.07;;
11313;SDS011;5712;48.858;9.206;2023-04-15T04:47:47;11.00;;;7.80;;
11313;SDS011;5712;48.858;9.206;2023-04-15T04:50:14;8.77;;;5.90;;
11313;SDS011;5712;48.858;9.206;2023-04-15T04:52:43;11.50;;;6.67;;
11313;SDS011;5712;48.858;9.206;2023-04-15T04:55:09;9.17;;;6.30;;
11313;SDS011;5712;48.858;9.206;2023-04-15T04:57:36;8.93;;;6.50;;
11313;SDS011;5712;48.858;9.206;2023-04-15T05:00:04;8.40;;;6.10;;
11313;SDS011;5712;48.858;9.206;2023-04-15T05:02:32;12.03;;;7.03;;
11313;SDS011;5712;48.858;9.206;2023-04-15T05:04:59;11.33;;;6.83;;
11313;SDS011;5712;48.858;9.206;2023-04-15T05:07:25;8.73;;;6.77;;
11313;SDS011;5712;48.858;9.206;2023-04-15T05:09:53;8.77;;;6.63;;
11313;SDS011;5712;48.858;9.206;2023-04-15T05:12:20;13.30;;;6.53;;
11313;SDS011;5712;48.858;9.206;2023-04-15T05:14:46;9.67;;;6.30;;
11313;SDS011;5712;48.858;9.206;2023-04-15T05:17:12;10.37;;;6.53;;
11313;SDS011;5712;48.858;9.206;2023-04-15T05:19:39;14.77;;;7.17;;
11313;SDS011;5712;48.858;9.206;2023-04-15T05:22:06;11.10;;;6.47;;
11313;SDS011;5712;48.858;9.206;2023-04-15T05:24:32;10.27;;;6.90;;
11313;SDS011;5712;48.858;9.206;2023-04-15T05:27:00;11.60;;;7.13;;
11313;SDS011;5712;48.858;9.206;2023-04-15T05:29:27;9.33;;;6.63;;
11313;SDS011;5712;48.858;9.206;2023-04-15T05:31:54;9.87;;;6.90;;
11313;SDS011;5712;48.858;9.206;2023-04-15T05:34:21;8.03;;;6.07;;
11313;SDS011;5712;48.858;9.206;2023-04-15T05:36:47;11.07;;;7.10;;
11313;SDS011;5712;48.858;9.206;2023-04-15T05:39:14;9.27;;;6.33;;
11313;SDS011;5712;48.858;9.206;2023-04-15T05:41:40;9.60;;;6.90;;
11313;SDS011;5712;48.858;9.206;2023-04-15T05:44:08;10.03;;;6.13;;
11313;SDS011;5712;48.858;9.206;2023-04-15T05:46:35;9.73;;;6.00;;
11313;SDS011;5712;48.858;9.206;2023-04-15T05:49:02;12.10;;;6.47;;
11313;SDS011;5712;48.858;9.206;2023-04-15T05:51:28;11.07;;;6.07;;
11313;SDS011;5712;48.858;9.206;2023-04-15T05:53:55;9.50;;;5.67;;
11313;SDS011;5712;48.858;9.206;2023-04-15T05:56:21;9.47;;;6.13;;
11313;SDS011;5712;48.858;9.206;2023-04-15T05:58:48;9.10;;;5.97;;
11313;SDS011;5712;48.858;9.206;2023-04-15T06:01:19;10.70;;;6.03;;
11313;SDS011;5712;48.858;9.206;2023-04-15T06:03:46;8.17;;;5.97;;
11313;SDS011;5712;48.858;9.206;2023-04-15T06:06:15;10.50;;;5.93;;
11313;SDS011;5712;48.858;9.206;2023-04-15T06:08:41;10.83;;;5.80;;
11313;SDS011;5712;48.858;9.206;2023-04-15T06:11:08;10.20;;;6.33;;
11313;SDS011;5712;48.858;9.206;2023-04-15T06:13:34;7.27;;;5.30;;
11313;SDS011;5712;48.858;9.206;2023-04-15T06:16:01;7.93;;;5.23;;
11313;SDS011;5712;48.858;9.206;2023-04-15T06:18:29;9.20;;;5.40;;
11313;SDS011;5712;48.858;9.206;2023-04-15T06:20:55;7.37;;;5.47;;
11313;SDS011;5712;48.858;9.206;2023-04-15T06:23:24;6.17;;;5.17;;
11313;SDS011;5712;48.858;9.206;2023-04-15T06:25:53;9.37;;;5.57;;
11313;SDS011;5712;48.858;9.206;2023-04-15T06:28:20;10.63;;;5.80;;
11313;SDS011;5712;48.858;9.206;2023-04-15T06:30:48;6.53;;;4.93;;
11313;SDS011;5712;48.858;9.206;2023-04-15T06:33:15;8.03;;;5.53;;
11313;SDS011;5712;48.858;9.206;2023-04-15T06:35:43;9.47;;;5.70;;
11313;SDS011;5712;48.858;9.206;2023-04-15T06:38:09;8.63;;;5.40;;
11313;SDS011;5712;48.858;9.206;2023-04-15T06:40:36;7.47;;;5.23;;
11313;SDS011;5712;48.858;9.206;2023-04-15T06:43:02;7.73;;;5.10;;
11313;SDS011;5712;48.858;9.206;2023-04-15T06:45:29;7.37;;;5.00;;
11313;SDS011;5712;48.858;9.206;2023-04-15T06:47:56;7.17;;;4.40;;
11313;SDS011;5712;48.858;9.206;2023-04-15T06:50:24;5.27;;;4.17;;
11313;SDS011;5712;48.858;9.206;2023-04-15T06:52:52;7.03;;;4.13;;
11313;SDS011;5712;48.858;9.206;2023-04-15T06:55:19;5.57;;;4.70;;
11313;SDS011;5712;48.858;9.206;2023-04-15T06:57:46;6.70;;;4.53;;
11313;SDS011;5712;48.858;9.206;2023-04-15T07:00:13;7.83;;;4.90;;
11313;SDS011;5712;48.858;9.206;2023-04-15T07:02:40;8.23;;;5.63;;
11313;SDS011;5712;48.858;9.206;2023-04-15T07:05:07;7.67;;;5.50;;
11313;SDS011;5712;48.858;9.206;2023-04-15T07:07:34;5.90;;;4.80;;
11313;SDS011;5712;48.858;9.206;2023-04-15T07:10:02;7.30;;;5.40;;
11313;SDS011;5712;48.858;9.206;2023-04-15T07:12:29;9.37;;;5.00;;
11313;SDS011;5712;48.858;9.206;2023-04-15T07:14:59;6.57;;;4.90;;
11313;SDS011;5712;48.858;9.206;2023-04-15T07:17:26;7.77;;;5.43;;
11313;SDS011;5712;48.858;9.206;2023-04-15T07:19:52;6.53;;;5.13;;
11313;SDS011;5712;48.858;9.206;2023-04-15T07:22:19;7.43;;;5.00;;
11313;SDS011;5712;48.858;9.206;2023-04-15T07:24:45;7.47;;;5.10;;
11313;SDS011;5712;48.858;9.206;2023-04-15T07:27:13;8.20;;;5.40;;
11313;SDS011;5712;48.858;9.206;2023-04-15T07:29:41;10.33;;;5.77;;
11313;SDS011;5712;48.858;9.206;2023-04-15T07:32:07;6.37;;;4.60;;
11313;SDS011;5712;48.858;9.206;2023-04-15T07:34:34;6.60;;;5.10;;
11313;SDS011;5712;48.858;9.206;2023-04-15T07:37:01;7.43;;;5.20;;
11313;SDS011;5712;48.858;9.206;2023-04-15T07:39:28;5.93;;;4.50;;
11313;SDS011;5712;48.858;9.206;2023-04-15T07:41:55;8.13;;;4.77;;
11313;SDS011;5712;48.858;9.206;2023-04-15T07:44:24;6.13;;;4.63;;
11313;SDS011;5712;48.858;9.206;2023-04-15T07:46:51;7.97;;;4.93;;
11313;SDS011;5712;48.858;9.206;2023-04-15T07:49:17;7.07;;;4.80;;
11313;SDS011;5712;48.858;9.206;2023-04-15T07:51:45;7.38;;;5.22;;
11313;SDS011;5712;48.858;9.206;2023-04-15T07:54:11;9.73;;;5.40;;
11313;SDS011;5712;48.858;9.206;2023-04-15T07:56:38;7.17;;;4.70;;
11313;SDS011;5712;48.858;9.206;2023-04-15T07:59:05;8.37;;;4.97;;
11313;SDS011;5712;48.858;9.206;2023-04-15T08:01:33;9.07;;;5.07;;
11313;SDS011;5712;48.858;9.206;2023-04-15T08:04:00;9.13;;;5.90;;
11313;SDS011;5712;48.858;9.206;2023-04-15T08:06:27;6.87;;;5.37;;
11313;SDS011;5712;48.858;9.206;2023-04-15T08:08:53;8.53;;;5.23;;
11313;SDS011;5712;48.858;9.206;2023-04-15T08:11:20;6.60;;;4.67;;
11313;SDS011;5712;48.858;9.206;2023-04-15T08:13:47;7.13;;;5.00;;
11313;SDS011;5712;48.858;9.206;2023-04-15T08:16:19;6.60;;;5.17;;
11313;SDS011;5712;48.858;9.206;2023-04-15T08:18:50;7.83;;;5.03;;
11313;SDS011;5712;48.858;9.206;2023-04-15T08:21:18;6.73;;;5.07;;
11313;SDS011;5712;48.858;9.206;2023-04-15T08:23:45;8.70;;;5.47;;
11313;SDS011;5712;48.858;9.206;2023-04-15T08:26:13;9.27;;;5.10;;
11313;SDS011;5712;48.858;9.206;2023-04-15T08:28:40;7.80;;;4.83;;
11313;SDS011;5712;48.858;9.206;2023-04-15T08:31:07;7.23;;;4.73;;
11313;SDS011;5712;48.858;9.206;2023-04-15T08:33:34;8.67;;;4.87;;
11313;SDS011;5712;48.858;9.206;2023-04-15T08:36:02;5.83;;;4.87;;
11313;SDS011;5712;48.858;9.206;2023-04-15T08:38:28;9.63;;;5.07;;
11313;SDS011;5712;48.858;9.206;2023-04-15T08:40:55;9.10;;;4.47;;
11313;SDS011;5712;48.858;9.206;2023-04-15T08:43:26;8.23;;;4.37;;
11313;SDS011;5712;48.858;9.206;2023-04-15T08:45:54;8.57;;;3.83;;
11313;SDS011;5712;48.858;9.206;2023-04-15T08:48:23;7.80;;;3.90;;
11313;SDS011;5712;48.858;9.206;2023-04-15T08:50:52;6.40;;;3.77;;
11313;SDS011;5712;48.858;9.206;2023-04-15T08:53:20;6.40;;;3.90;;
11313;SDS011;5712;48.858;9.206;2023-04-15T08:55:49;7.40;;;4.03;;
11313;SDS011;5712;48.858;9.206;2023-04-15T08:58:18;6.03;;;4.20;;
11313;SDS011;5712;48.858;9.206;2023-04-15T09:00:44;5.50;;;4.00;;
11313;SDS011;5712;48.858;9.206;2023-04-15T09:03:12;5.77;;;3.13;;
11313;SDS011;5712;48.858;9.206;2023-04-15T09:05:39;4.40;;;2.70;;
11313;SDS011;5712;48.858;9.206;2023-04-15T09:08:06;7.17;;;3.50;;
11313;SDS011;5712;48.858;9.206;2023-04-15T09:10:34;3.03;;;2.70;;
11313;SDS011;5712;48.858;9.206;2023-04-15T09:13:01;4.87;;;2.77;;
11313;SDS011;5712;48.858;9.206;2023-04-15T09:15:28;5.47;;;2.97;;
11313;SDS011;5712;48.858;9.206;2023-04-15T09:17:57;5.20;;;2.73;;
11313;SDS011;5712;48.858;9.206;2023-04-15T09:20:23;4.77;;;2.73;;
11313;SDS011;5712;48.858;9.206;2023-04-15T09:22:50;3.03;;;2.63;;
11313;SDS011;5712;48.858;9.206;2023-04-15T09:25:27;4.90;;;3.10;;
11313;SDS011;5712;48.858;9.206;2023-04-15T09:27:56;4.70;;;3.80;;
11313;SDS011;5712;48.858;9.206;2023-04-15T09:30:24;3.70;;;3.00;;
11313;SDS011;5712;48.858;9.206;2023-04-15T09:32:51;6.90;;;3.10;;
11313;SDS011;5712;48.858;9.206;2023-04-15T09:35:18;4.27;;;2.77;;
11313;SDS011;5712;48.858;9.206;2023-04-15T09:37:45;3.70;;;2.70;;
11313;SDS011;5712;48.858;9.206;2023-04-15T09:40:12;4.77;;;3.20;;
11313;SDS011;5712;48.858;9.206;2023-04-15T09:45:26;3.87;;;3.10;;
11313;SDS011;5712;48.858;9.206;2023-04-15T09:47:52;4.90;;;3.53;;
11313;SDS011;5712;48.858;9.206;2023-04-15T09:50:19;5.13;;;3.23;;
11313;SDS011;5712;48.858;9.206;2023-04-15T09:52:46;4.80;;;3.80;;
11313;SDS011;5712;48.858;9.206;2023-04-15T09:55:13;4.40;;;3.60;;
11313;SDS011;5712;48.858;9.206;2023-04-15T09:57:41;4.23;;;3.60;;
11313;SDS011;5712;48.858;9.206;2023-04-15T10:00:10;4.80;;;3.17;;
11313;SDS011;5712;48.858;9.206;2023-04-15T10:02:37;3.77;;;3.13;;
11313;SDS011;5712;48.858;9.206;2023-04-15T10:05:05;5.80;;;4.13;;
11313;SDS011;5712;48.858;9.206;2023-04-15T10:07:33;3.83;;;3.27;;
11313;SDS011;5712;48.858;9.206;2023-04-15T10:10:00;5.00;;;3.10;;
11313;SDS011;5712;48.858;9.206;2023-04-15T10:12:27;3.90;;;2.80;;
11313;SDS011;5712;48.858;9.206;2023-04-15T10:14:59;6.53;;;3.40;;
11313;SDS011;5712;48.858;9.206;2023-04-15T10:17:31;4.20;;;3.10;;
11313;SDS011;5712;48.858;9.206;2023-04-15T10:19:59;4.03;;;2.97;;
11313;SDS011;5712;48.858;9.206;2023-04-15T10:22:26;3.97;;;2.90;;
11313;SDS011;5712;48.858;9.206;2023-04-15T10:24:54;3.67;;;2.60;;
11313;SDS011;5712;48.858;9.206;2023-04-15T10:27:21;3.37;;;2.80;;
11313;SDS011;5712;48.858;9.206;2023-04-15T10:29:49;4.43;;;2.63;;
11313;SDS011;5712;48.858;9.206;2023-04-15T10:32:16;3.80;;;2.43;;
11313;SDS011;5712;48.858;9.206;2023-04-15T10:34:46;5.60;;;2.70;;
11313;SDS011;5712;48.858;9.206;2023-04-15T10:37:19;3.30;;;2.50;;
11313;SDS011;5712;48.858;9.206;2023-04-15T10:39:46;4.20;;;2.80;;
11313;SDS011;5712;48.858;9.206;2023-04-15T10:42:13;4.47;;;2.87;;
11313;SDS011;5712;48.858;9.206;2023-04-15T10:44:41;4.67;;;2.90;;
11313;SDS011;5712;48.858;9.206;2023-04-15T10:47:10;3.60;;;2.60;;
11313;SDS011;5712;48.858;9.206;2023-04-15T10:49:44;5.00;;;2.93;;
11313;SDS011;5712;48.858;9.206;2023-04-15T10:52:14;5.77;;;3.00;;
11313;SDS011;5712;48.858;9.206;2023-04-15T10:54:42;7.13;;;3.30;;
11313;SDS011;5712;48.858;9.206;2023-04-15T10:57:13;4.10;;;3.10;;
11313;SDS011;5712;48.858;9.206;2023-04-15T10:59:59;4.53;;;3.10;;
11313;SDS011;5712;48.858;9.206;2023-04-15T11:02:40;5.77;;;3.07;;
11313;SDS011;5712;48.858;9.206;2023-04-15T11:05:09;4.80;;;3.10;;
11313;SDS011;5712;48.858;9.206;2023-04-15T11:07:36;7.80;;;3.67;;
11313;SDS011;5712;48.858;9.206;2023-04-15T11:13:22;5.07;;;4.33;;
11313;SDS011;5712;48.858;9.206;2023-04-15T11:15:57;7.47;;;4.30;;
11313;SDS011;5712;48.858;9.206;2023-04-15T11:18:26;8.90;;;3.97;;
11313;SDS011;5712;48.858;9.206;2023-04-15T11:20:56;5.00;;;3.93;;
11313;SDS011;5712;48.858;9.206;2023-04-15T11:23:29;7.50;;;4.00;;
11313;SDS011;5712;48.858;9.206;2023-04-15T11:25:58;5.57;;;3.63;;
11313;SDS011;5712;48.858;9.206;2023-04-15T11:28:27;8.30;;;4.40;;
11313;SDS011;5712;48.858;9.206;2023-04-15T11:30:55;7.33;;;4.80;;
11313;SDS011;5712;48.858;9.206;2023-04-15T11:33:22;4.93;;;3.97;;
11313;SDS011;5712;48.858;9.206;2023-04-15T11:35:50;4.53;;;3.73;;
11313;SDS011;5712;48.858;9.206;2023-04-15T11:38:20;4.50;;;3.50;;
11313;SDS011;5712;48.858;9.206;2023-04-15T11:40:46;5.17;;;4.10;;
11313;SDS011;5712;48.858;9.206;2023-04-15T11:43:15;5.40;;;3.80;;
11313;SDS011;5712;48.858;9.206;2023-04-15T11:45:48;6.40;;;3.60;;
11313;SDS011;5712;48.858;9.206;2023-04-15T11:48:16;3.87;;;3.47;;
11313;SDS011;5712;48.858;9.206;2023-04-15T11:50:43;3.80;;;3.43;;
11313;SDS011;5712;48.858;9.206;2023-04-15T11:53:10;5.93;;;3.27;;
11313;SDS011;5712;48.858;9.206;2023-04-15T11:55:44;4.20;;;3.00;;
11313;SDS011;5712;48.858;9.206;2023-04-15T11:58:12;6.60;;;3.13;;
11313;SDS011;5712;48.858;9.206;2023-04-15T12:00:40;3.50;;;2.90;;
11313;SDS011;5712;48.858;9.206;2023-04-15T12:03:21;5.63;;;2.50;;
11313;SDS011;5712;48.858;9.206;2023-04-15T12:06:02;5.20;;;2.70;;
11313;SDS011;5712;48.858;9.206;2023-04-15T12:11:38;4.43;;;3.07;;
11313;SDS011;5712;48.858;9.206;2023-04-15T12:14:11;5.87;;;3.23;;
11313;SDS011;5712;48.858;9.206;2023-04-15T12:16:42;4.20;;;3.00;;
11313;SDS011;5712;48.858;9.206;2023-04-15T12:19:10;5.90;;;3.33;;
11313;SDS011;5712;48.858;9.206;2023-04-15T12:21:38;7.00;;;3.13;;
11313;SDS011;5712;48.858;9.206;2023-04-15T12:24:07;4.97;;;3.83;;
11313;SDS011;5712;48.858;9.206;2023-04-15T12:26:35;4.40;;;3.80;;
11313;SDS011;5712;48.858;9.206;2023-04-15T12:29:05;5.87;;;4.27;;
11313;SDS011;5712;48.858;9.206;2023-04-15T12:31:33;6.17;;;4.60;;
11313;SDS011;5712;48.858;9.206;2023-04-15T12:34:01;7.27;;;4.60;;
11313;SDS011;5712;48.858;9.206;2023-04-15T12:36:29;5.30;;;4.60;;
11313;SDS011;5712;48.858;9.206;2023-04-15T12:39:00;6.50;;;4.10;;
11313;SDS011;5712;48.858;9.206;2023-04-15T12:41:27;4.10;;;3.63;;
11313;SDS011;5712;48.858;9.206;2023-04-15T12:43:54;6.47;;;3.90;;
11313;SDS011;5712;48.858;9.206;2023-04-15T12:46:22;5.80;;;3.97;;
11313;SDS011;5712;48.858;9.206;2023-04-15T12:48:48;5.10;;;4.07;;
11313;SDS011;5712;48.858;9.206;2023-04-15T12:51:16;5.20;;;3.80;;
11313;SDS011;5712;48.858;9.206;2023-04-15T12:53:42;4.17;;;3.70;;
11313;SDS011;5712;48.858;9.206;2023-04-15T12:56:09;4.03;;;3.70;;
11313;SDS011;5712;48.858;9.206;2023-04-15T12:58:35;5.63;;;3.50;;
11313;SDS011;5712;48.858;9.206;2023-04-15T13:01:02;5.00;;;3.30;;
11313;SDS011;5712;48.858;9.206;2023-04-15T13:03:30;4.73;;;2.70;;
11313;SDS011;5712;48.858;9.206;2023-04-15T13:05:56;4.40;;;2.83;;
11313;SDS011;5712;48.858;9.206;2023-04-15T13:08:27;6.13;;;3.40;;
11313;SDS011;5712;48.858;9.206;2023-04-15T13:10:53;3.63;;;2.77;;
11313;SDS011;5712;48.858;9.206;2023-04-15T13:13:20;5.33;;;3.37;;
11313;SDS011;5712;48.858;9.206;2023-04-15T13:15:47;5.17;;;3.43;;
11313;SDS011;5712;48.858;9.206;2023-04-15T13:18:13;6.67;;;3.00;;
11313;SDS011;5712;48.858;9.206;2023-04-15T13:20:41;4.00;;;2.50;;
11313;SDS011;5712;48.858;9.206;2023-04-15T13:23:08;4.30;;;2.57;;
11313;SDS011;5712;48.858;9.206;2023-04-15T13:25:36;3.53;;;2.57;;
11313;SDS011;5712;48.858;9.206;2023-04-15T13:28:02;2.67;;;2.27;;
11313;SDS011;5712;48.858;9.206;2023-04-15T13:30:29;3.37;;;1.57;;
11313;SDS011;5712;48.858;9.206;2023-04-15T13:32:55;1.90;;;1.50;;
11313;SDS011;5712;48.858;9.206;2023-04-15T13:35:22;1.80;;;1.13;;
11313;SDS011;5712;48.858;9.206;2023-04-15T13:37:50;2.20;;;0.90;;
11313;SDS011;5712;48.858;9.206;2023-04-15T13:40:18;1.30;;;1.00;;
11313;SDS011;5712;48.858;9.206;2023-04-15T13:42:45;2.57;;;1.00;;
11313;SDS011;5712;48.858;9.206;2023-04-15T13:45:12;2.13;;;1.07;;
11313;SDS011;5712;48.858;9.206;2023-04-15T13:47:39;2.10;;;1.20;;
11313;SDS011;5712;48.858;9.206;2023-04-15T13:50:06;1.03;;;0.80;;
11313;SDS011;5712;48.858;9.206;2023-04-15T13:52:33;1.40;;;1.03;;
11313;SDS011;5712;48.858;9.206;2023-04-15T13:55:03;1.93;;;1.30;;
11313;SDS011;5712;48.858;9.206;2023-04-15T13:57:31;5.00;;;1.10;;
11313;SDS011;5712;48.858;9.206;2023-04-15T13:59:58;3.23;;;1.50;;
11313;SDS011;5712;48.858;9.206;2023-04-15T14:02:24;2.97;;;1.17;;
11313;SDS011;5712;48.858;9.206;2023-04-15T14:04:51;2.37;;;1.13;;
11313;SDS011;5712;48.858;9.206;2023-04-15T14:07:17;3.97;;;1.20;;
11313;SDS011;5712;48.858;9.206;2023-04-15T14:09:44;1.67;;;1.13;;
11313;SDS011;5712;48.858;9.206;2023-04-15T14:12:13;1.95;;;0.93;;
11313;SDS011;5712;48.858;9.206;2023-04-15T14:14:40;1.23;;;1.13;;
11313;SDS011;5712;48.858;9.206;2023-04-15T14:17:06;1.30;;;0.90;;
11313;SDS011;5712;48.858;9.206;2023-04-15T14:19:33;1.37;;;0.87;;
11313;SDS011;5712;48.858;9.206;2023-04-15T14:22:00;1.97;;;1.20;;
11313;SDS011;5712;48.858;9.206;2023-04-15T14:24:27;1.33;;;1.20;;
11313;SDS011;5712;48.858;9.206;2023-04-15T14:26:54;2.07;;;1.30;;
11313;SDS011;5712;48.858;9.206;2023-04-15T14:29:22;3.07;;;1.43;;
11313;SDS011;5712;48.858;9.206;2023-04-15T14:31:48;1.50;;;1.30;;
11313;SDS011;5712;48.858;9.206;2023-04-15T14:34:15;1.53;;;1.30;;
11313;SDS011;5712;48.858;9.206;2023-04-15T14:36:41;2.30;;;1.20;;
11313;SDS011;5712;48.858;9.206;2023-04-15T14:39:08;2.00;;;1.10;;
11313;SDS011;5712;48.858;9.206;2023-04-15T14:41:35;2.50;;;1.23;;
11313;SDS011;5712;48.858;9.206;2023-04-15T14:44:02;1.83;;;1.20;;
11313;SDS011;5712;48.858;9.206;2023-04-15T14:46:30;0.80;;;0.80;;
11313;SDS011;5712;48.858;9.206;2023-04-15T14:48:57;3.03;;;1.20;;
11313;SDS011;5712;48.858;9.206;2023-04-15T14:51:28;1.70;;;1.23;;
11313;SDS011;5712;48.858;9.206;2023-04-15T14:53:55;1.80;;;1.10;;
11313;SDS011;5712;48.858;9.206;2023-04-15T14:56:21;1.63;;;1.20;;
11313;SDS011;5712;48.858;9.206;2023-04-15T14:58:48;2.47;;;1.20;;
11313;SDS011;5712;48.858;9.206;2023-04-15T15:01:17;2.60;;;1.30;;
11313;SDS011;5712;48.858;9.206;2023-04-15T15:03:45;3.80;;;1.20;;
11313;SDS011;5712;48.858;9.206;2023-04-15T15:06:11;2.60;;;1.70;;
11313;SDS011;5712;48.858;9.206;2023-04-15T15:08:38;2.30;;;1.47;;
11313;SDS011;5712;48.858;9.206;2023-04-15T15:11:04;3.47;;;1.60;;